Time;durP1;ratioP1;P1;durP2;ratioP2;P2;SDS_P1;SDS_P2;PMS_P1;PMS_P2;Temp;Humidity;BMP_temperature;BMP_pressure;BME280_temperature;BME280_humidity;BME280_pressure;Samples;Min_cycle;Max_cycle;Signal;HPM_P1;HPM_P2
2022/07/31 00:02:27;;;;;;;9.10;3.50;;;;;;;;;;5302722;28;20621;-75
2022/07/31 00:04:59;;;;;;;7.50;3.40;;;;;;;;;;5302151;28;20313;-75
2022/07/31 00:07:30;;;;;;;6.05;3.20;;;;;;;;;;5302687;28;20398;-76
2022/07/31 00:10:02;;;;;;;7.53;3.78;;;;;;;;;;5302878;28;20023;-76
2022/07/31 00:12:36;;;;;;;8.02;4.40;;;;;;;;;;5302319;28;20016;-75
2022/07/31 00:15:08;;;;;;;5.90;3.40;;;;;;;;;;5302750;28;20509;-75
2022/07/31 00:17:41;;;;;;;7.95;4.43;;;;;;;;;;5302625;28;20036;-76
2022/07/31 00:20:13;;;;;;;8.40;4.45;;;;;;;;;;5301706;28;20055;-76
2022/07/31 00:22:46;;;;;;;6.93;4.00;;;;;;;;;;5302563;28;20095;-75
2022/07/31 00:25:17;;;;;;;6.45;4.00;;;;;;;;;;5302516;28;20077;-75
2022/07/31 00:27:49;;;;;;;6.32;3.88;;;;;;;;;;5301906;28;20452;-76
2022/07/31 00:30:20;;;;;;;11.82;4.05;;;;;;;;;;5302212;28;20020;-76
2022/07/31 00:32:51;;;;;;;7.53;3.95;;;;;;;;;;5302283;28;20059;-75
2022/07/31 00:35:22;;;;;;;7.25;3.85;;;;;;;;;;5302289;28;20091;-75
2022/07/31 00:37:53;;;;;;;5.30;3.83;;;;;;;;;;5302737;28;20161;-75
2022/07/31 00:40:25;;;;;;;11.90;4.27;;;;;;;;;;5301471;28;20282;-75
2022/07/31 00:42:56;;;;;;;10.80;4.85;;;;;;;;;;5302917;28;20277;-75
2022/07/31 00:45:27;;;;;;;9.50;4.47;;;;;;;;;;5301937;28;20034;-75
2022/07/31 00:47:58;;;;;;;7.57;3.90;;;;;;;;;;5304147;28;20370;-74
2022/07/31 00:50:30;;;;;;;7.65;4.00;;;;;;;;;;5306489;28;20479;-75
2022/07/31 00:53:01;;;;;;;11.07;4.03;;;;;;;;;;5306616;28;20012;-74
2022/07/31 00:55:32;;;;;;;6.45;3.38;;;;;;;;;;5305869;28;20027;-75
2022/07/31 00:58:03;;;;;;;5.67;3.27;;;;;;;;;;5306326;28;20069;-75
2022/07/31 01:00:34;;;;;;;8.93;3.58;;;;;;;;;;5305626;28;20693;-74
2022/07/31 01:03:05;;;;;;;6.78;3.20;;;;;;;;;;5306340;28;20455;-75
2022/07/31 01:05:37;;;;;;;6.27;3.17;;;;;;;;;;5306331;28;20028;-75
2022/07/31 01:08:08;;;;;;;8.97;3.60;;;;;;;;;;5305720;28;20721;-75
2022/07/31 01:10:45;;;;;;;10.18;4.10;;;;;;;;;;5306432;28;20365;-75
2022/07/31 01:13:30;;;;;;;6.90;4.53;;;;;;;;;;5306220;28;20019;-75
2022/07/31 01:16:03;;;;;;;6.68;4.22;;;;;;;;;;5305385;28;20426;-75
2022/07/31 01:18:35;;;;;;;7.80;4.28;;;;;;;;;;5305977;28;20035;-75
2022/07/31 01:21:08;;;;;;;8.13;3.63;;;;;;;;;;5305980;28;20181;-75
2022/07/31 01:23:57;;;;;;;7.03;4.10;;;;;;;;;;5305200;28;20031;-76
2022/07/31 01:26:31;;;;;;;6.90;4.20;;;;;;;;;;5305489;28;20027;-75
2022/07/31 01:29:08;;;;;;;4.43;3.30;;;;;;;;;;5305234;28;20493;-75
2022/07/31 01:31:56;;;;;;;5.20;4.55;;;;;;;;;;5305950;28;20016;-75
2022/07/31 01:34:32;;;;;;;5.90;3.80;;;;;;;;;;5305520;28;20023;-76
2022/07/31 01:37:09;;;;;;;8.23;4.55;;;;;;;;;;5304946;28;20411;-75
2022/07/31 01:39:43;;;;;;;6.20;3.83;;;;;;;;;;5305764;28;20077;-75
2022/07/31 01:42:17;;;;;;;7.97;4.22;;;;;;;;;;5305566;28;20169;-76
2022/07/31 01:44:50;;;;;;;6.45;3.75;;;;;;;;;;5304658;28;20028;-76
2022/07/31 01:47:22;;;;;;;7.55;4.15;;;;;;;;;;5305094;28;20070;-75
2022/07/31 01:49:53;;;;;;;8.95;4.28;;;;;;;;;;5304882;28;20024;-75
2022/07/31 01:52:25;;;;;;;8.75;4.00;;;;;;;;;;5305133;28;20478;-76
2022/07/31 01:54:58;;;;;;;8.25;4.43;;;;;;;;;;5305759;28;20026;-75
2022/07/31 01:57:31;;;;;;;12.65;4.53;;;;;;;;;;5304077;28;20446;-75
2022/07/31 02:00:05;;;;;;;6.43;3.92;;;;;;;;;;5304801;28;20508;-76
2022/07/31 02:02:37;;;;;;;9.50;4.30;;;;;;;;;;5305148;28;20008;-76
2022/07/31 02:05:09;;;;;;;8.73;4.30;;;;;;;;;;5304453;28;20213;-75
2022/07/31 02:07:40;;;;;;;10.48;4.65;;;;;;;;;;5305000;28;20016;-75
2022/07/31 02:10:14;;;;;;;15.07;5.07;;;;;;;;;;5304972;28;20422;-76
2022/07/31 02:12:45;;;;;;;7.07;4.22;;;;;;;;;;5304299;28;20482;-75
2022/07/31 02:15:18;;;;;;;11.07;5.38;;;;;;;;;;5305061;28;20016;-75
2022/07/31 02:17:50;;;;;;;10.82;4.35;;;;;;;;;;5305088;28;20016;-75
2022/07/31 02:20:22;;;;;;;17.67;6.10;;;;;;;;;;5303718;28;20080;-75
2022/07/31 02:22:54;;;;;;;5.15;4.05;;;;;;;;;;5304994;28;20463;-75
2022/07/31 02:25:25;;;;;;;10.02;4.63;;;;;;;;;;5303761;28;20024;-74
2022/07/31 02:27:58;;;;;;;9.55;4.78;;;;;;;;;;5304979;28;20099;-74
2022/07/31 02:30:30;;;;;;;6.78;4.47;;;;;;;;;;5304363;28;20440;-75
2022/07/31 02:33:03;;;;;;;10.20;5.20;;;;;;;;;;5303568;28;20020;-75
2022/07/31 02:35:34;;;;;;;11.75;6.13;;;;;;;;;;5304365;28;20012;-75
2022/07/31 02:38:06;;;;;;;9.85;4.93;;;;;;;;;;5304524;28;20019;-75
2022/07/31 02:40:38;;;;;;;8.82;5.50;;;;;;;;;;5303642;28;20352;-75
2022/07/31 02:43:10;;;;;;;5.80;4.85;;;;;;;;;;5304195;28;20074;-75
2022/07/31 02:45:42;;;;;;;9.57;5.60;;;;;;;;;;5304075;28;20063;-75
2022/07/31 02:48:13;;;;;;;9.13;5.60;;;;;;;;;;5303646;28;20455;-75
2022/07/31 02:50:44;;;;;;;9.77;5.90;;;;;;;;;;5304355;28;20363;-75
2022/07/31 02:53:16;;;;;;;10.02;5.47;;;;;;;;;;5303384;28;20023;-75
2022/07/31 02:55:48;;;;;;;6.30;5.32;;;;;;;;;;5304087;28;20020;-75
2022/07/31 02:58:19;;;;;;;11.07;5.22;;;;;;;;;;5303546;28;20020;-75
2022/07/31 03:01:00;;;;;;;8.67;5.33;;;;;;;;;;5303632;28;20027;-75
2022/07/31 03:03:31;;;;;;;10.07;5.05;;;;;;;;;;5304023;28;20269;-75
2022/07/31 03:06:03;;;;;;;8.37;5.47;;;;;;;;;;5303871;28;20094;-75
2022/07/31 03:08:34;;;;;;;12.50;5.13;;;;;;;;;;5302953;28;20298;-75
2022/07/31 03:11:05;;;;;;;9.50;4.93;;;;;;;;;;5302964;28;20020;-75
2022/07/31 03:13:37;;;;;;;6.25;4.32;;;;;;;;;;5303689;28;20024;-75
2022/07/31 03:16:10;;;;;;;9.55;5.05;;;;;;;;;;5303013;28;20023;-76
2022/07/31 03:18:42;;;;;;;9.65;5.53;;;;;;;;;;5303599;28;20023;-76
2022/07/31 03:21:13;;;;;;;10.85;6.13;;;;;;;;;;5302646;28;20051;-75
2022/07/31 03:23:46;;;;;;;10.07;6.00;;;;;;;;;;5303755;28;20420;-75
2022/07/31 03:26:17;;;;;;;6.40;5.50;;;;;;;;;;5303522;28;20455;-75
2022/07/31 03:28:48;;;;;;;6.80;5.35;;;;;;;;;;5302806;28;20055;-75
2022/07/31 03:31:20;;;;;;;7.30;5.93;;;;;;;;;;5303058;28;20015;-75
2022/07/31 03:33:51;;;;;;;9.80;5.90;;;;;;;;;;5303874;28;20258;-76
2022/07/31 03:36:22;;;;;;;13.30;6.60;;;;;;;;;;5302401;28;20026;-75
2022/07/31 03:38:53;;;;;;;9.52;6.70;;;;;;;;;;5303758;28;20261;-75
2022/07/31 03:41:24;;;;;;;7.78;6.63;;;;;;;;;;5302932;28;20012;-75
2022/07/31 03:43:56;;;;;;;13.35;7.78;;;;;;;;;;5302673;28;20016;-75
2022/07/31 03:46:27;;;;;;;13.00;7.77;;;;;;;;;;5302716;28;20298;-75
2022/07/31 03:48:59;;;;;;;8.40;7.30;;;;;;;;;;5303561;28;20756;-75
2022/07/31 03:51:30;;;;;;;9.70;7.78;;;;;;;;;;5302096;28;20027;-75
2022/07/31 03:54:01;;;;;;;14.63;7.55;;;;;;;;;;5302913;28;20030;-75
2022/07/31 03:56:33;;;;;;;9.57;8.57;;;;;;;;;;5301935;28;20466;-75
2022/07/31 03:59:04;;;;;;;16.23;8.75;;;;;;;;;;5302769;28;20042;-75
2022/07/31 04:01:35;;;;;;;10.70;7.55;;;;;;;;;;5302734;28;20544;-75
2022/07/31 04:04:06;;;;;;;10.32;7.82;;;;;;;;;;5301966;28;20157;-76
2022/07/31 04:06:39;;;;;;;10.77;8.10;;;;;;;;;;5302746;28;20097;-75
2022/07/31 04:09:10;;;;;;;12.23;8.55;;;;;;;;;;5302726;28;20274;-75
2022/07/31 04:11:41;;;;;;;12.38;8.10;;;;;;;;;;5302121;28;20027;-75
2022/07/31 04:14:12;;;;;;;14.38;7.90;;;;;;;;;;5302553;28;20264;-75
2022/07/31 04:16:43;;;;;;;10.88;7.78;;;;;;;;;;5302677;28;20069;-75
2022/07/31 04:19:15;;;;;;;8.77;7.82;;;;;;;;;;5301833;28;20020;-75
2022/07/31 04:21:46;;;;;;;9.35;7.20;;;;;;;;;;5302381;28;20294;-75
2022/07/31 04:24:19;;;;;;;11.80;6.95;;;;;;;;;;5302524;28;20043;-75
2022/07/31 04:26:53;;;;;;;8.85;7.03;;;;;;;;;;5302229;28;20024;-75
2022/07/31 04:29:27;;;;;;;7.25;6.63;;;;;;;;;;5302254;28;20077;-75
2022/07/31 04:31:58;;;;;;;8.43;6.32;;;;;;;;;;5302054;28;20047;-75
2022/07/31 04:34:29;;;;;;;9.90;6.75;;;;;;;;;;5302280;28;20098;-74
2022/07/31 04:37:01;;;;;;;11.37;6.43;;;;;;;;;;5302604;28;20020;-74
2022/07/31 04:39:32;;;;;;;9.47;6.33;;;;;;;;;;5301580;28;20272;-75
2022/07/31 04:42:03;;;;;;;9.82;5.95;;;;;;;;;;5302288;28;20637;-75
2022/07/31 04:44:35;;;;;;;8.57;5.70;;;;;;;;;;5302392;28;20035;-75
2022/07/31 04:47:06;;;;;;;8.37;5.30;;;;;;;;;;5301664;28;20028;-76
2022/07/31 04:49:37;;;;;;;9.32;5.60;;;;;;;;;;5302178;28;20877;-76
2022/07/31 04:52:08;;;;;;;5.77;4.40;;;;;;;;;;5302361;28;20043;-76
2022/07/31 04:54:40;;;;;;;9.20;4.55;;;;;;;;;;5301505;28;20266;-76
2022/07/31 04:57:11;;;;;;;7.45;4.15;;;;;;;;;;5302447;28;20141;-76
2022/07/31 04:59:42;;;;;;;9.17;4.27;;;;;;;;;;5301532;28;20016;-75
2022/07/31 05:02:13;;;;;;;6.82;3.90;;;;;;;;;;5302168;28;20392;-76
2022/07/31 05:04:44;;;;;;;5.10;4.03;;;;;;;;;;5302034;28;20054;-76
2022/07/31 05:07:15;;;;;;;5.05;4.00;;;;;;;;;;5301162;28;20028;-76
2022/07/31 05:09:47;;;;;;;4.28;3.70;;;;;;;;;;5302248;28;20053;-76
2022/07/31 05:12:18;;;;;;;4.77;3.53;;;;;;;;;;5302139;28;20668;-76
2022/07/31 05:14:49;;;;;;;6.97;3.57;;;;;;;;;;5301512;28;20266;-75
2022/07/31 05:17:20;;;;;;;3.55;3.25;;;;;;;;;;5301673;28;20266;-76
2022/07/31 05:19:51;;;;;;;6.10;3.22;;;;;;;;;;5301984;28;20387;-75
2022/07/31 05:22:22;;;;;;;6.25;3.50;;;;;;;;;;5301063;28;20022;-76
2022/07/31 05:24:54;;;;;;;8.50;3.20;;;;;;;;;;5302358;28;20027;-76
2022/07/31 05:27:25;;;;;;;5.07;2.83;;;;;;;;;;5301645;28;20094;-76
2022/07/31 05:29:56;;;;;;;4.45;2.67;;;;;;;;;;5301472;28;20262;-76
2022/07/31 05:32:27;;;;;;;2.97;2.30;;;;;;;;;;5301614;28;20757;-76
2022/07/31 05:34:58;;;;;;;6.43;2.50;;;;;;;;;;5303576;28;20016;-76
2022/07/31 05:37:29;;;;;;;4.10;2.10;;;;;;;;;;5305495;28;20105;-76
2022/07/31 05:40:01;;;;;;;4.53;2.58;;;;;;;;;;5305630;28;20274;-76
2022/07/31 05:42:32;;;;;;;6.28;2.53;;;;;;;;;;5304705;28;20099;-76
2022/07/31 05:45:03;;;;;;;3.40;2.13;;;;;;;;;;5305534;28;20028;-76
2022/07/31 05:47:34;;;;;;;3.72;2.35;;;;;;;;;;5305557;28;20016;-76
2022/07/31 05:50:07;;;;;;;4.07;2.13;;;;;;;;;;5304810;28;20013;-76
2022/07/31 05:52:38;;;;;;;2.92;1.95;;;;;;;;;;5305522;28;20276;-76
2022/07/31 05:55:09;;;;;;;4.80;1.92;;;;;;;;;;5305293;28;20020;-76
2022/07/31 05:57:40;;;;;;;4.57;2.50;;;;;;;;;;5304666;28;20019;-76
2022/07/31 06:00:12;;;;;;;3.80;1.90;;;;;;;;;;5305445;28;20270;-76
2022/07/31 06:02:44;;;;;;;3.55;2.00;;;;;;;;;;5305234;28;20020;-76
2022/07/31 06:05:15;;;;;;;3.47;1.67;;;;;;;;;;5304262;28;20051;-76
2022/07/31 06:07:46;;;;;;;3.28;1.83;;;;;;;;;;5305199;28;20024;-76
2022/07/31 06:10:18;;;;;;;2.08;1.70;;;;;;;;;;5304154;28;20085;-76
2022/07/31 06:12:49;;;;;;;3.80;1.88;;;;;;;;;;5305460;28;20016;-76
2022/07/31 06:15:20;;;;;;;4.03;2.00;;;;;;;;;;5304530;28;20020;-76
2022/07/31 06:17:51;;;;;;;5.80;2.00;;;;;;;;;;5304102;28;20492;-76
2022/07/31 06:20:22;;;;;;;5.63;2.37;;;;;;;;;;5304327;28;20105;-76
2022/07/31 06:22:54;;;;;;;3.88;1.88;;;;;;;;;;5305158;28;20265;-76
2022/07/31 06:25:25;;;;;;;3.87;2.27;;;;;;;;;;5303567;28;20032;-76
2022/07/31 06:27:56;;;;;;;5.53;1.75;;;;;;;;;;5304990;28;20273;-76
2022/07/31 06:30:27;;;;;;;5.57;2.28;;;;;;;;;;5304322;28;20024;-76
2022/07/31 06:32:58;;;;;;;2.77;1.73;;;;;;;;;;5304279;28;20016;-75
2022/07/31 06:35:30;;;;;;;3.78;1.80;;;;;;;;;;5304234;28;20277;-76
2022/07/31 06:38:01;;;;;;;4.90;2.55;;;;;;;;;;5304480;28;20065;-76
2022/07/31 06:40:33;;;;;;;4.03;2.40;;;;;;;;;;5303562;28;20020;-76
2022/07/31 06:43:04;;;;;;;4.53;1.80;;;;;;;;;;5304227;28;20258;-76
2022/07/31 06:45:35;;;;;;;3.90;1.90;;;;;;;;;;5303319;28;20321;-76
2022/07/31 06:48:06;;;;;;;3.97;2.35;;;;;;;;;;5304277;28;20266;-76
2022/07/31 06:50:37;;;;;;;4.87;1.97;;;;;;;;;;5304237;28;20059;-76
2022/07/31 06:53:08;;;;;;;5.35;2.28;;;;;;;;;;5303381;28;20284;-76
2022/07/31 06:55:40;;;;;;;3.70;2.13;;;;;;;;;;5304062;28;20089;-76
2022/07/31 06:58:11;;;;;;;4.03;2.70;;;;;;;;;;5304115;28;20020;-76
2022/07/31 07:00:42;;;;;;;7.50;3.75;;;;;;;;;;5303170;28;20020;-76
2022/07/31 07:03:14;;;;;;;4.97;2.73;;;;;;;;;;5303588;28;20406;-76
2022/07/31 07:05:45;;;;;;;6.20;2.60;;;;;;;;;;5303542;28;20292;-76
2022/07/31 07:08:16;;;;;;;5.60;2.27;;;;;;;;;;5302908;28;20421;-76
2022/07/31 07:10:47;;;;;;;5.78;3.33;;;;;;;;;;5303755;28;20369;-76
2022/07/31 07:13:19;;;;;;;6.53;4.53;;;;;;;;;;5302514;28;20016;-76
2022/07/31 07:15:50;;;;;;;4.90;3.47;;;;;;;;;;5303823;28;20262;-76
2022/07/31 07:18:21;;;;;;;6.43;4.03;;;;;;;;;;5302983;28;20047;-77
2022/07/31 07:20:52;;;;;;;4.93;4.13;;;;;;;;;;5302734;28;20040;-75
2022/07/31 07:23:23;;;;;;;9.27;4.63;;;;;;;;;;5303084;28;20463;-74
2022/07/31 07:25:54;;;;;;;7.10;4.38;;;;;;;;;;5303640;28;20039;-74
2022/07/31 07:28:26;;;;;;;9.68;4.90;;;;;;;;;;5302192;28;20015;-72
2022/07/31 07:30:57;;;;;;;8.20;4.70;;;;;;;;;;5303318;28;20103;-75
2022/07/31 07:33:30;;;;;;;7.65;6.10;;;;;;;;;;5302581;28;20349;-74
2022/07/31 07:36:01;;;;;;;8.07;5.93;;;;;;;;;;5302305;28;20066;-74
2022/07/31 07:38:32;;;;;;;6.28;5.35;;;;;;;;;;5303043;28;20458;-74
2022/07/31 07:41:03;;;;;;;9.48;5.97;;;;;;;;;;5303135;28;20471;-74
2022/07/31 07:43:35;;;;;;;7.53;5.63;;;;;;;;;;5302071;28;20012;-74
2022/07/31 07:46:06;;;;;;;7.53;6.20;;;;;;;;;;5303085;28;20028;-75
2022/07/31 07:48:37;;;;;;;7.10;6.40;;;;;;;;;;5302184;28;20983;-74
2022/07/31 07:51:08;;;;;;;13.20;7.03;;;;;;;;;;5303044;28;20107;-74
2022/07/31 07:53:39;;;;;;;8.93;8.05;;;;;;;;;;5298153;28;20031;-73
2022/07/31 07:56:11;;;;;;;8.50;6.95;;;;;;;;;;5300747;28;20016;-74
2022/07/31 07:58:42;;;;;;;8.05;6.43;;;;;;;;;;5301937;28;20020;-74
2022/07/31 08:01:13;;;;;;;9.60;7.47;;;;;;;;;;5302683;28;20020;-75
2022/07/31 08:03:45;;;;;;;8.93;6.70;;;;;;;;;;5301503;28;20268;-74
2022/07/31 08:06:16;;;;;;;8.68;6.60;;;;;;;;;;5301647;28;20424;-74
2022/07/31 08:08:47;;;;;;;6.85;6.25;;;;;;;;;;5302701;28;20054;-74
2022/07/31 08:11:18;;;;;;;8.80;6.10;;;;;;;;;;5301450;28;20060;-74
2022/07/31 08:13:50;;;;;;;9.67;7.20;;;;;;;;;;5302874;28;20026;-74
2022/07/31 08:16:21;;;;;;;8.68;6.22;;;;;;;;;;5302279;28;20012;-74
2022/07/31 08:18:53;;;;;;;8.10;7.22;;;;;;;;;;5302044;28;20414;-75
2022/07/31 08:21:24;;;;;;;6.88;6.13;;;;;;;;;;5301932;28;20097;-75
2022/07/31 08:23:55;;;;;;;8.83;6.20;;;;;;;;;;5302078;28;20016;-74
2022/07/31 08:27:22;;;;;;;6.72;5.78;;;;;;;;;;5301928;28;20301;-74
2022/07/31 08:29:18;;;;;;;7.32;6.53;;;;;;;;;;5301921;28;20016;-74
2022/07/31 08:31:50;;;;;;;6.07;5.47;;;;;;;;;;5301963;28;20371;-74
2022/07/31 08:34:22;;;;;;;7.75;5.72;;;;;;;;;;5302252;28;20044;-74
2022/07/31 08:36:53;;;;;;;7.18;6.00;;;;;;;;;;5302657;28;20063;-74
2022/07/31 08:39:24;;;;;;;7.57;5.53;;;;;;;;;;5301113;28;20534;-73
2022/07/31 08:41:55;;;;;;;8.20;6.03;;;;;;;;;;5302439;28;20360;-74
2022/07/31 08:44:27;;;;;;;6.23;5.33;;;;;;;;;;5301923;28;20114;-74
2022/07/31 08:46:58;;;;;;;5.70;5.20;;;;;;;;;;5301935;28;20024;-74
2022/07/31 08:49:31;;;;;;;5.88;5.32;;;;;;;;;;5301930;28;20262;-74
2022/07/31 08:52:03;;;;;;;5.22;4.72;;;;;;;;;;5301251;28;20377;-73
2022/07/31 08:54:35;;;;;;;5.60;4.53;;;;;;;;;;5301975;28;20099;-74
2022/07/31 08:57:07;;;;;;;5.80;5.30;;;;;;;;;;5301404;28;20019;-72
2022/07/31 08:59:41;;;;;;;6.18;4.63;;;;;;;;;;5301456;28;20443;-74
2022/07/31 09:02:14;;;;;;;7.05;5.00;;;;;;;;;;5302182;28;20065;-74
2022/07/31 09:04:46;;;;;;;7.53;4.63;;;;;;;;;;5301687;28;20055;-74
2022/07/31 09:07:17;;;;;;;7.20;4.32;;;;;;;;;;5301335;28;20016;-74
2022/07/31 09:09:48;;;;;;;5.07;4.50;;;;;;;;;;5303926;28;20463;-74
2022/07/31 09:12:27;;;;;;;9.07;4.40;;;;;;;;;;5305665;28;20273;-75
2022/07/31 09:14:58;;;;;;;5.78;4.13;;;;;;;;;;5305458;28;20042;-74
2022/07/31 09:17:30;;;;;;;6.77;4.53;;;;;;;;;;5305720;28;20034;-74
2022/07/31 09:20:02;;;;;;;5.40;4.40;;;;;;;;;;5305160;28;20704;-71
2022/07/31 09:22:34;;;;;;;6.22;3.65;;;;;;;;;;5305778;28;20042;-71
2022/07/31 09:25:14;;;;;;;4.60;3.67;;;;;;;;;;5305564;28;20032;-78
2022/07/31 09:27:47;;;;;;;7.18;3.90;;;;;;;;;;5304749;28;20266;-74
2022/07/31 09:30:18;;;;;;;5.53;3.47;;;;;;;;;;5305540;28;20383;-72
2022/07/31 09:32:49;;;;;;;4.20;3.80;;;;;;;;;;5306013;28;20016;-73
2022/07/31 09:35:20;;;;;;;8.00;3.90;;;;;;;;;;5304172;28;20265;-73
2022/07/31 09:37:51;;;;;;;6.93;3.77;;;;;;;;;;5305738;28;20024;-74
2022/07/31 09:40:32;;;;;;;5.07;3.60;;;;;;;;;;5305299;28;20383;-74
2022/07/31 09:43:12;;;;;;;4.85;3.80;;;;;;;;;;5304540;28;20262;-73
2022/07/31 09:45:45;;;;;;;8.38;3.20;;;;;;;;;;5305367;28;20032;-73
2022/07/31 09:48:16;;;;;;;6.03;3.17;;;;;;;;;;5304535;28;20481;-73
2022/07/31 09:50:56;;;;;;;6.43;2.92;;;;;;;;;;5305100;28;20020;-72
2022/07/31 09:53:38;;;;;;;7.10;3.13;;;;;;;;;;5305019;28;20374;-73
2022/07/31 09:56:11;;;;;;;6.00;2.25;;;;;;;;;;5304437;28;20035;-73
2022/07/31 09:58:42;;;;;;;5.43;1.90;;;;;;;;;;5305148;28;20027;-73
2022/07/31 10:01:13;;;;;;;5.07;1.50;;;;;;;;;;5304966;28;20470;-74
2022/07/31 10:03:49;;;;;;;4.72;2.50;;;;;;;;;;5304098;28;20261;-72
2022/07/31 10:06:21;;;;;;;4.40;2.17;;;;;;;;;;5304253;28;20048;-73
2022/07/31 10:08:54;;;;;;;6.68;2.13;;;;;;;;;;5305165;28;20020;-73
2022/07/31 10:11:25;;;;;;;4.72;1.80;;;;;;;;;;5304042;28;20028;-73
2022/07/31 10:14:01;;;;;;;4.50;2.08;;;;;;;;;;5305381;28;20012;-73
2022/07/31 10:16:35;;;;;;;4.75;1.60;;;;;;;;;;5303906;28;20016;-73
2022/07/31 10:19:10;;;;;;;4.18;1.48;;;;;;;;;;5304689;28;20360;-74
2022/07/31 10:21:46;;;;;;;5.93;1.58;;;;;;;;;;5303871;28;20036;-75
2022/07/31 10:24:18;;;;;;;2.90;1.13;;;;;;;;;;5303699;28;20035;-75
2022/07/31 10:26:50;;;;;;;5.20;1.40;;;;;;;;;;5304945;28;20020;-75
2022/07/31 10:29:21;;;;;;;3.90;1.15;;;;;;;;;;5304140;28;20019;-72
2022/07/31 10:31:53;;;;;;;5.65;1.40;;;;;;;;;;5303825;28;20028;-74
2022/07/31 10:34:25;;;;;;;6.85;1.17;;;;;;;;;;5303768;28;20398;-75
2022/07/31 10:37:00;;;;;;;4.60;1.10;;;;;;;;;;5304808;28;20020;-75
2022/07/31 10:39:40;;;;;;;7.15;0.90;;;;;;;;;;5303618;28;20098;-73
2022/07/31 10:42:12;;;;;;;3.85;0.90;;;;;;;;;;5304139;28;20019;-73
2022/07/31 10:44:45;;;;;;;5.87;1.30;;;;;;;;;;5303154;28;20347;-74
2022/07/31 10:47:17;;;;;;;2.42;1.00;;;;;;;;;;5304359;28;20750;-75
2022/07/31 10:49:48;;;;;;;2.17;1.00;;;;;;;;;;5304053;28;20054;-74
2022/07/31 10:52:30;;;;;;;3.72;1.08;;;;;;;;;;5303050;28;20036;-74
2022/07/31 10:55:12;;;;;;;5.35;0.90;;;;;;;;;;5303359;28;20501;-74
2022/07/31 10:57:44;;;;;;;2.42;0.70;;;;;;;;;;5304061;28;20012;-74
2022/07/31 11:00:19;;;;;;;3.27;0.80;;;;;;;;;;5303064;28;20041;-72
2022/07/31 11:02:50;;;;;;;4.82;0.80;;;;;;;;;;5304196;28;20281;-70
2022/07/31 11:05:22;;;;;;;3.05;0.90;;;;;;;;;;5302993;28;20024;-72
2022/07/31 11:08:00;;;;;;;4.40;0.90;;;;;;;;;;5303281;28;20012;-71
2022/07/31 11:10:32;;;;;;;4.10;0.80;;;;;;;;;;5303313;28;20464;-71
2022/07/31 11:13:04;;;;;;;7.60;1.17;;;;;;;;;;5301929;28;20050;-71
2022/07/31 11:15:39;;;;;;;3.28;1.00;;;;;;;;;;5303120;28;20053;-71
2022/07/31 11:18:21;;;;;;;3.50;0.73;;;;;;;;;;5303037;28;20031;-71
2022/07/31 11:20:59;;;;;;;1.70;0.70;;;;;;;;;;5302633;28;20146;-72
2022/07/31 11:23:31;;;;;;;3.72;1.20;;;;;;;;;;5303269;28;20020;-72
2022/07/31 11:26:05;;;;;;;3.17;1.23;;;;;;;;;;5303316;28;20031;-71
2022/07/31 11:28:36;;;;;;;5.63;0.70;;;;;;;;;;5302701;28;20008;-72
2022/07/31 11:31:08;;;;;;;2.90;0.70;;;;;;;;;;5302966;28;20127;-71
2022/07/31 11:33:42;;;;;;;2.47;0.77;;;;;;;;;;5301994;28;20487;-72
2022/07/31 11:36:18;;;;;;;4.30;0.60;;;;;;;;;;5303319;28;20099;-72
2022/07/31 11:38:51;;;;;;;2.13;0.80;;;;;;;;;;5303337;28;20383;-72
2022/07/31 11:41:26;;;;;;;1.92;0.60;;;;;;;;;;5302534;28;20030;-72
2022/07/31 11:43:58;;;;;;;2.20;0.80;;;;;;;;;;5303589;28;20493;-72
2022/07/31 11:46:32;;;;;;;3.17;0.80;;;;;;;;;;5303000;28;20559;-71
2022/07/31 11:49:03;;;;;;;2.08;0.75;;;;;;;;;;5302036;28;20039;-74
2022/07/31 11:51:35;;;;;;;1.65;0.70;;;;;;;;;;5303009;28;20020;-74
2022/07/31 11:54:06;;;;;;;2.50;0.90;;;;;;;;;;5303008;28;20474;-74
2022/07/31 11:56:38;;;;;;;4.30;0.80;;;;;;;;;;5302545;28;20732;-74
2022/07/31 11:59:09;;;;;;;4.00;1.05;;;;;;;;;;5303080;28;20023;-75
2022/07/31 12:01:40;;;;;;;2.38;0.90;;;;;;;;;;5302121;28;20024;-74
2022/07/31 12:04:16;;;;;;;5.20;0.90;;;;;;;;;;5303108;28;20016;-74
2022/07/31 12:06:53;;;;;;;1.95;0.80;;;;;;;;;;5302909;28;20471;-75
2022/07/31 12:09:24;;;;;;;4.47;0.90;;;;;;;;;;5302058;28;20039;-74
2022/07/31 12:11:56;;;;;;;4.18;1.00;;;;;;;;;;5303003;28;20090;-74
2022/07/31 12:14:27;;;;;;;3.83;1.08;;;;;;;;;;5302313;28;20019;-74
2022/07/31 12:16:59;;;;;;;2.38;0.95;;;;;;;;;;5302251;28;20077;-73
2022/07/31 12:19:31;;;;;;;3.92;0.80;;;;;;;;;;5302287;28;20016;-74
2022/07/31 12:22:21;;;;;;;4.47;0.98;;;;;;;;;;5302667;28;20032;-75
2022/07/31 12:24:59;;;;;;;3.00;1.20;;;;;;;;;;5302160;28;20378;-73
2022/07/31 12:27:30;;;;;;;;;;;;;;;;;;5303169;28;20598;-73
2022/07/31 12:30:15;;;;;;;2.05;1.05;;;;;;;;;;5301702;28;19994;-72
2022/07/31 12:32:46;;;;;;;4.60;1.05;;;;;;;;;;5302226;28;20020;-73
2022/07/31 12:35:17;;;;;;;2.83;0.90;;;;;;;;;;5302337;28;20464;-74
2022/07/31 12:37:49;;;;;;;5.00;0.77;;;;;;;;;;5301810;28;20455;-73
2022/07/31 12:40:22;;;;;;;4.38;1.17;;;;;;;;;;5301901;28;20274;-73
2022/07/31 12:42:53;;;;;;;2.58;0.80;;;;;;;;;;5302610;28;20024;-73
2022/07/31 12:45:32;;;;;;;3.67;0.90;;;;;;;;;;5305407;28;20517;-74
2022/07/31 12:48:04;;;;;;;3.80;1.13;;;;;;;;;;5306680;28;20011;-74
2022/07/31 12:50:35;;;;;;;3.13;0.70;;;;;;;;;;5306336;28;20069;-74
2022/07/31 12:53:06;;;;;;;5.15;0.93;;;;;;;;;;5305752;28;20435;-74
2022/07/31 12:55:37;;;;;;;3.72;1.15;;;;;;;;;;5300610;28;20016;-73
2022/07/31 12:58:09;;;;;;;3.77;1.03;;;;;;;;;;5305558;28;20013;-73
2022/07/31 13:00:40;;;;;;;3.25;0.88;;;;;;;;;;5306315;28;20285;-74
2022/07/31 13:03:11;;;;;;;3.28;1.20;;;;;;;;;;5306023;28;20031;-73
2022/07/31 13:05:42;;;;;;;4.82;0.90;;;;;;;;;;5305575;28;20042;-73
2022/07/31 13:08:13;;;;;;;7.13;0.90;;;;;;;;;;5306207;28;20016;-73
2022/07/31 13:10:45;;;;;;;9.52;1.10;;;;;;;;;;5305646;28;20016;-75
2022/07/31 13:13:17;;;;;;;3.77;0.83;;;;;;;;;;5304877;28;20051;-74
2022/07/31 13:15:48;;;;;;;5.05;0.90;;;;;;;;;;5305949;28;20353;-75
2022/07/31 13:18:20;;;;;;;6.10;1.10;;;;;;;;;;5305741;28;20099;-74
2022/07/31 13:20:51;;;;;;;3.75;1.00;;;;;;;;;;5305028;28;20044;-73
2022/07/31 13:23:22;;;;;;;4.07;0.93;;;;;;;;;;5305389;28;20024;-73
2022/07/31 13:25:57;;;;;;;2.10;0.80;;;;;;;;;;5306195;28;20364;-73
2022/07/31 13:28:28;;;;;;;2.72;0.80;;;;;;;;;;5304858;28;20077;-74
2022/07/31 13:31:00;;;;;;;5.75;0.75;;;;;;;;;;5305338;28;20027;-75
2022/07/31 13:33:31;;;;;;;2.38;1.10;;;;;;;;;;5294235;28;20012;-73
2022/07/31 13:36:02;;;;;;;3.37;1.37;;;;;;;;;;5283400;28;20020;-73
2022/07/31 13:38:34;;;;;;;5.97;0.90;;;;;;;;;;5283514;28;20016;-74
2022/07/31 13:41:22;;;;;;;3.30;0.63;;;;;;;;;;5282340;28;20052;-74
2022/07/31 13:43:53;;;;;;;3.80;0.70;;;;;;;;;;5283602;28;20027;-73
2022/07/31 13:46:25;;;;;;;2.10;0.70;;;;;;;;;;5283223;28;20028;-73
2022/07/31 13:48:59;;;;;;;1.30;0.60;;;;;;;;;;5282650;28;20021;-72
2022/07/31 13:51:30;;;;;;;4.47;0.88;;;;;;;;;;5282889;28;20091;-73
2022/07/31 13:54:01;;;;;;;7.53;0.87;;;;;;;;;;5283247;28;20384;-73
2022/07/31 13:56:33;;;;;;;7.10;0.70;;;;;;;;;;5281635;28;20024;-76
2022/07/31 13:59:04;;;;;;;2.92;0.73;;;;;;;;;;5283097;28;20309;-74
2022/07/31 14:01:35;;;;;;;8.88;0.50;;;;;;;;;;5282186;28;20027;-74
2022/07/31 14:04:06;;;;;;;4.47;0.60;;;;;;;;;;5283139;28;20017;-73
2022/07/31 14:06:37;;;;;;;2.53;0.67;;;;;;;;;;5282945;28;20402;-73
2022/07/31 14:09:08;;;;;;;4.17;1.37;;;;;;;;;;5282379;28;20013;-73
2022/07/31 14:11:40;;;;;;;2.23;0.73;;;;;;;;;;5282543;28;20116;-74
2022/07/31 14:14:11;;;;;;;3.83;0.50;;;;;;;;;;5282731;28;20016;-73
2022/07/31 14:16:42;;;;;;;4.38;0.40;;;;;;;;;;5282296;28;20074;-71
2022/07/31 14:19:13;;;;;;;2.93;0.50;;;;;;;;;;5282887;28;20027;-72
2022/07/31 14:21:45;;;;;;;3.00;0.43;;;;;;;;;;5282367;28;20282;-71
2022/07/31 14:24:16;;;;;;;3.50;0.50;;;;;;;;;;5282232;28;20482;-72
2022/07/31 14:26:47;;;;;;;4.50;0.80;;;;;;;;;;5282905;28;20056;-71
2022/07/31 14:29:18;;;;;;;3.42;0.47;;;;;;;;;;5295417;28;20292;-71
2022/07/31 14:31:49;;;;;;;2.77;0.50;;;;;;;;;;5302840;28;20081;-71
2022/07/31 14:34:20;;;;;;;2.80;0.60;;;;;;;;;;5302978;28;20294;-72
2022/07/31 14:36:52;;;;;;;0.98;0.30;;;;;;;;;;5302853;28;20699;-71
2022/07/31 14:39:25;;;;;;;1.27;0.40;;;;;;;;;;5302963;28;20459;-71
2022/07/31 14:41:56;;;;;;;1.58;0.40;;;;;;;;;;5303192;28;20019;-72
2022/07/31 14:44:27;;;;;;;2.55;0.57;;;;;;;;;;5302224;28;20447;-72
2022/07/31 14:46:58;;;;;;;6.65;0.90;;;;;;;;;;5303484;28;20048;-72
2022/07/31 14:49:30;;;;;;;4.38;0.47;;;;;;;;;;5302638;28;20016;-72
2022/07/31 14:52:01;;;;;;;3.17;0.50;;;;;;;;;;5302159;28;20016;-72
2022/07/31 14:54:33;;;;;;;2.80;0.40;;;;;;;;;;5302972;28;20098;-72
2022/07/31 14:57:04;;;;;;;3.40;0.40;;;;;;;;;;5303179;28;20051;-72
2022/07/31 14:59:35;;;;;;;2.60;0.60;;;;;;;;;;5302295;28;20032;-72
2022/07/31 15:02:06;;;;;;;7.03;0.60;;;;;;;;;;5302478;28;20310;-72
2022/07/31 15:04:37;;;;;;;3.33;0.50;;;;;;;;;;5302105;28;20301;-73
2022/07/31 15:07:08;;;;;;;3.33;0.57;;;;;;;;;;5298166;28;20324;-73
2022/07/31 15:09:40;;;;;;;3.78;0.65;;;;;;;;;;5290353;28;20606;-73
2022/07/31 15:12:15;;;;;;;3.13;0.90;;;;;;;;;;5287181;28;20795;-73
2022/07/31 15:14:49;;;;;;;3.08;0.70;;;;;;;;;;5302606;28;20620;-72